createdAt,value
2022-10-01T00:00:42.990Z,7.8
2022-10-01T00:31:02.240Z,7.9
2022-10-01T01:01:19.359Z,7.95
2022-10-01T01:31:40.138Z,8.15
2022-10-01T02:01:59.380Z,8.15
2022-10-01T02:32:18.613Z,8.35
2022-10-01T03:02:36.842Z,8.5
2022-10-01T03:32:55.906Z,8.65
2022-10-01T04:33:34.468Z,9
2022-10-01T05:03:55.465Z,9.05
2022-10-01T05:34:13.733Z,9.2
2022-10-01T06:04:41.401Z,9.5
2022-10-01T06:34:56.794Z,9.6
2022-10-01T07:23:22.959Z,9.6
2022-10-01T07:30:10.101Z,21.45
2022-10-01T08:00:13.496Z,12.05
2022-10-01T08:30:26.513Z,11.05
2022-10-01T09:00:43.829Z,11.1
2022-10-01T09:31:02.799Z,11.4
2022-10-01T10:01:25.909Z,11.75
2022-10-01T10:31:47.502Z,12.55
2022-10-01T11:02:06.813Z,13.1
2022-10-01T11:32:32.136Z,14.95
2022-10-01T12:03:05.279Z,21.35
2022-10-01T12:33:36.403Z,18.5
2022-10-01T13:03:52.145Z,17.1
2022-10-01T13:34:08.070Z,16.8
2022-10-01T14:04:25.345Z,16.85
2022-10-01T14:34:45.935Z,17.15
2022-10-01T15:05:02.411Z,16.85
2022-10-01T15:35:21.285Z,16.7
2022-10-01T16:05:37.906Z,16.05
2022-10-01T16:35:54.073Z,15.65
2022-10-01T17:06:11.473Z,15.3
2022-10-01T17:36:29.188Z,15.05
2022-10-01T18:06:47.254Z,14.7
2022-10-01T18:37:03.920Z,14.6
2022-10-01T19:07:22.215Z,14.25
2022-10-01T19:37:40.420Z,13.8
2022-10-01T20:08:02.134Z,13.5
2022-10-01T20:38:19.762Z,13.1
2022-10-01T21:08:38.379Z,12.9
2022-10-01T21:39:49.279Z,13.2
2022-10-01T22:10:08.358Z,12.7
2022-10-01T22:40:26.898Z,12.4
2022-10-01T23:10:45.362Z,12.1
2022-10-01T23:41:03.866Z,11.8
